Time;durP1;ratioP1;P1;durP2;ratioP2;P2;SDS_P1;SDS_P2;PMS_P1;PMS_P2;Temp;Humidity;BMP_temperature;BMP_pressure;BME280_temperature;BME280_humidity;BME280_pressure;Samples;Min_cycle;Max_cycle;Signal;HPM_P1;HPM_P2
2021/05/08 00:02:06;;;;;;;9.35;7.80;;;;;;;4.46;59.55;101190.06;5024464;28;20570;-78
2021/05/08 00:04:32;;;;;;;9.75;7.90;;;;;;;4.41;59.49;101177.00;4992484;28;20041;-78
2021/05/08 00:06:59;;;;;;;9.73;7.72;;;;;;;4.38;59.45;101180.38;5013446;28;20737;-78
2021/05/08 00:09:27;;;;;;;9.35;8.00;;;;;;;4.34;59.51;101178.53;5029103;28;20037;-78
2021/05/08 00:11:55;;;;;;;8.57;7.13;;;;;;;4.30;59.52;101175.81;5025233;28;20040;-79
2021/05/08 00:14:22;;;;;;;10.30;7.22;;;;;;;4.26;59.40;101173.16;5011319;28;20041;-79
2021/05/08 00:16:48;;;;;;;8.65;7.03;;;;;;;4.22;59.35;101175.56;5018426;28;20125;-79
2021/05/08 00:19:13;;;;;;;9.65;7.75;;;;;;;4.19;59.87;101167.72;4994839;28;20173;-79
2021/05/08 00:21:39;;;;;;;9.75;7.13;;;;;;;4.15;59.42;101169.34;5024069;28;20049;-79
2021/05/08 00:24:05;;;;;;;9.50;7.75;;;;;;;4.12;59.65;101170.97;5029959;28;20045;-79
2021/05/08 00:26:31;;;;;;;9.30;7.70;;;;;;;4.07;59.64;101174.31;5006348;28;20106;-78
2021/05/08 00:29:02;;;;;;;10.55;7.90;;;;;;;4.03;59.53;101166.38;5016374;28;20037;-79
2021/05/08 00:31:27;;;;;;;10.32;8.00;;;;;;;4.01;60.32;101158.59;5012987;28;20037;-79
2021/05/08 00:33:53;;;;;;;8.88;7.35;;;;;;;3.97;60.14;101161.03;5012256;28;20492;-79
2021/05/08 00:36:19;;;;;;;8.43;7.53;;;;;;;3.95;59.57;101163.59;5034563;28;20039;-78
2021/05/08 00:38:45;;;;;;;10.82;7.65;;;;;;;3.91;60.05;101162.59;5009318;28;20724;-79
2021/05/08 00:41:11;;;;;;;8.90;7.22;;;;;;;3.88;60.25;101151.31;5010966;28;20042;-79
2021/05/08 00:43:39;;;;;;;9.30;7.35;;;;;;;3.85;60.33;101151.19;5006368;28;20034;-79
2021/05/08 00:46:05;;;;;;;9.77;7.63;;;;;;;3.82;60.17;101153.69;5028423;28;20033;-79
2021/05/08 00:48:32;;;;;;;10.50;8.35;;;;;;;3.77;59.92;101153.56;5018414;28;20065;-79
2021/05/08 00:50:58;;;;;;;9.20;7.80;;;;;;;3.74;60.66;101156.91;4975734;28;20509;-79
2021/05/08 00:53:24;;;;;;;9.48;7.65;;;;;;;3.71;60.57;101153.34;4992579;28;20041;-79
2021/05/08 00:55:51;;;;;;;9.13;7.57;;;;;;;3.68;60.53;101159.31;4993537;28;20040;-79
2021/05/08 00:58:21;;;;;;;10.65;7.90;;;;;;;3.64;60.42;101148.81;4997215;28;20045;-79
2021/05/08 01:00:49;;;;;;;9.98;7.80;;;;;;;3.61;60.58;101147.00;5043824;28;20166;-79
2021/05/08 01:03:15;;;;;;;10.18;7.90;;;;;;;3.57;60.65;101143.47;5011145;28;20033;-79
2021/05/08 01:05:41;;;;;;;10.38;7.68;;;;;;;3.55;60.29;101136.50;4993693;28;20599;-79
2021/05/08 01:08:12;;;;;;;9.68;7.63;;;;;;;3.52;60.74;101146.75;5003065;28;20079;-79
2021/05/08 01:10:39;;;;;;;10.23;7.75;;;;;;;3.50;60.30;101143.22;5006189;28;20421;-80
2021/05/08 01:13:05;;;;;;;11.18;8.02;;;;;;;3.48;60.40;101139.72;4979783;28;20040;-79
2021/05/08 01:15:30;;;;;;;10.07;8.00;;;;;;;3.44;60.56;101132.69;5012811;28;20049;-79
2021/05/08 01:17:57;;;;;;;9.00;7.55;;;;;;;3.39;60.56;101128.25;5040414;28;20045;-80
2021/05/08 01:20:24;;;;;;;10.00;7.90;;;;;;;3.36;60.65;101133.31;5009711;28;20435;-79
2021/05/08 01:22:52;;;;;;;10.57;7.80;;;;;;;3.33;60.89;101125.47;5011862;28;20573;-79
2021/05/08 01:25:23;;;;;;;10.82;8.07;;;;;;;3.31;60.97;101128.81;5009924;28;20098;-79
2021/05/08 01:27:56;;;;;;;9.52;7.45;;;;;;;3.27;60.91;101135.63;5035310;28;20076;-79
2021/05/08 01:30:27;;;;;;;10.57;7.70;;;;;;;3.24;60.88;101135.53;4982988;28;20056;-79
2021/05/08 01:32:54;;;;;;;10.60;7.32;;;;;;;3.22;60.91;101132.00;5012456;28;20072;-79
2021/05/08 01:35:20;;;;;;;9.52;7.65;;;;;;;3.19;61.04;101124.16;5012393;28;20041;-79
2021/05/08 01:37:47;;;;;;;10.50;7.82;;;;;;;3.16;61.00;101122.34;4998927;28;20674;-80
2021/05/08 01:40:14;;;;;;;9.63;7.57;;;;;;;3.12;60.96;101125.66;5014444;28;20143;-79
2021/05/08 01:42:43;;;;;;;9.93;7.72;;;;;;;3.10;60.96;101121.25;5027200;28;20064;-80
2021/05/08 01:45:18;;;;;;;9.35;7.53;;;;;;;3.08;61.11;101122.91;5011336;28;20663;-80
2021/05/08 01:47:45;;;;;;;9.77;7.60;;;;;;;3.04;61.06;101121.94;4993862;28;20040;-80
2021/05/08 01:50:15;;;;;;;10.48;8.05;;;;;;;3.01;61.26;101114.09;5013194;28;20048;-80
2021/05/08 01:52:44;;;;;;;9.40;7.75;;;;;;;2.98;61.32;101114.84;4990658;28;20085;-80
2021/05/08 01:55:15;;;;;;;10.05;7.80;;;;;;;2.95;61.14;101111.28;5024030;28;20297;-80
2021/05/08 01:57:46;;;;;;;10.50;7.75;;;;;;;2.92;61.09;101108.59;5012200;28;20563;-80
2021/05/08 02:00:38;;;;;;;13.25;7.43;;;;;;;2.88;61.60;101118.84;5007230;28;20541;-79
2021/05/08 02:03:04;;;;;;;8.60;7.00;;;;;;;2.86;61.58;101117.03;5010715;28;20152;-79
2021/05/08 02:05:36;;;;;;;9.73;7.60;;;;;;;2.83;61.37;101115.22;5012842;28;20048;-79
2021/05/08 02:08:12;;;;;;;9.60;7.47;;;;;;;2.80;61.42;101114.25;4983829;28;20032;-80
2021/05/08 02:10:39;;;;;;;9.18;7.18;;;;;;;2.78;61.33;101114.16;5035337;28;20045;-80
2021/05/08 02:13:07;;;;;;;10.65;7.57;;;;;;;2.75;61.32;101101.16;5009141;28;20035;-80
2021/05/08 02:15:33;;;;;;;9.93;7.78;;;;;;;2.71;61.66;101094.13;4980472;28;20037;-80
2021/05/08 02:18:00;;;;;;;10.10;7.63;;;;;;;2.69;61.71;101099.25;4998938;28;20029;-80
2021/05/08 02:20:28;;;;;;;10.05;7.72;;;;;;;2.68;61.59;101097.47;5010376;28;20060;-80
2021/05/08 02:22:56;;;;;;;9.45;7.25;;;;;;;2.63;61.86;101093.00;4976145;28;20044;-80
2021/05/08 02:25:23;;;;;;;10.50;8.10;;;;;;;2.61;61.48;101097.25;5031847;28;20128;-80
2021/05/08 02:27:49;;;;;;;10.93;7.90;;;;;;;2.59;61.96;101102.34;5002298;28;20183;-79
2021/05/08 02:30:19;;;;;;;9.23;7.70;;;;;;;2.56;61.85;101107.38;5013043;28;20043;-80
2021/05/08 02:32:45;;;;;;;11.18;8.15;;;;;;;2.54;61.70;101099.59;5030420;28;20060;-80
2021/05/08 02:35:13;;;;;;;9.98;7.30;;;;;;;2.52;61.57;101090.03;5034191;28;20101;-79
2021/05/08 02:37:39;;;;;;;11.45;8.15;;;;;;;2.49;61.71;101089.94;4988523;28;20874;-79
2021/05/08 02:40:11;;;;;;;9.82;7.40;;;;;;;2.46;61.87;101084.66;5007820;28;20046;-80
2021/05/08 02:42:38;;;;;;;9.95;7.72;;;;;;;2.43;61.66;101088.00;5025101;28;20655;-79
2021/05/08 02:45:06;;;;;;;10.57;8.02;;;;;;;2.41;61.94;101081.03;4963694;28;20502;-80
2021/05/08 02:47:33;;;;;;;10.43;8.00;;;;;;;2.38;62.07;101072.38;5022786;28;20060;-79
2021/05/08 02:49:59;;;;;;;10.38;8.23;;;;;;;2.36;62.13;101075.72;4987984;28;20295;-80
2021/05/08 02:52:25;;;;;;;10.95;7.80;;;;;;;2.31;61.63;101073.00;4985300;28;20049;-80
2021/05/08 02:54:51;;;;;;;9.48;7.32;;;;;;;2.30;61.76;101080.66;5008194;28;20733;-80
2021/05/08 02:57:17;;;;;;;10.90;7.97;;;;;;;2.27;61.89;101076.28;5008078;28;20048;-80
2021/05/08 02:59:43;;;;;;;10.95;7.43;;;;;;;2.23;62.19;101077.00;4988653;28;20045;-79
2021/05/08 03:02:09;;;;;;;11.20;7.90;;;;;;;2.22;62.09;101072.66;4994952;28;20053;-80
2021/05/08 03:04:35;;;;;;;10.85;8.18;;;;;;;2.20;61.77;101076.88;5009068;28;20033;-79
2021/05/08 03:07:02;;;;;;;11.27;7.50;;;;;;;2.16;62.15;101070.75;5018942;28;20075;-80
2021/05/08 03:09:29;;;;;;;11.82;8.40;;;;;;;2.14;62.08;101062.06;5008698;28;20040;-80
2021/05/08 03:11:56;;;;;;;11.45;7.88;;;;;;;2.12;61.84;101058.56;4977177;28;20470;-79
2021/05/08 03:14:22;;;;;;;10.38;7.82;;;;;;;2.09;62.21;101063.63;4988912;28;20053;-80
2021/05/08 03:16:48;;;;;;;10.07;8.15;;;;;;;2.07;61.96;101057.50;5020914;28;20037;-80
2021/05/08 03:19:13;;;;;;;10.52;7.93;;;;;;;2.07;61.98;101061.78;5041476;28;20113;-80
2021/05/08 03:21:39;;;;;;;9.30;7.57;;;;;;;2.03;62.04;101058.22;5027268;28;20045;-80
2021/05/08 03:24:06;;;;;;;10.80;8.38;;;;;;;2.01;62.14;101055.59;4969394;28;20084;-80
2021/05/08 03:26:32;;;;;;;10.82;8.07;;;;;;;2.00;62.35;101052.94;5030914;28;20045;-80
2021/05/08 03:28:58;;;;;;;10.00;7.63;;;;;;;1.96;62.15;101044.22;4993688;28;20114;-80
2021/05/08 03:31:25;;;;;;;11.32;8.00;;;;;;;1.95;62.63;101054.47;5025707;28;20041;-80
2021/05/08 03:33:51;;;;;;;11.25;8.30;;;;;;;1.93;62.38;101049.25;5011916;28;20503;-80
2021/05/08 03:36:17;;;;;;;11.57;7.55;;;;;;;1.91;62.38;101044.88;5011521;28;20036;-80
2021/05/08 03:38:43;;;;;;;12.50;8.43;;;;;;;1.90;62.46;101045.69;5034249;28;20045;-82
2021/05/08 03:41:09;;;;;;;12.13;8.25;;;;;;;1.87;62.31;101043.91;4990817;28;20135;-79
2021/05/08 03:43:35;;;;;;;13.10;7.90;;;;;;;1.84;62.25;101030.88;4996680;28;20044;-80
2021/05/08 03:46:01;;;;;;;10.18;7.65;;;;;;;1.83;62.08;101042.91;4998020;28;20095;-80
2021/05/08 03:48:28;;;;;;;12.55;8.00;;;;;;;1.81;62.54;101036.78;5032943;28;20040;-79
2021/05/08 03:50:53;;;;;;;10.38;7.60;;;;;;;1.79;62.21;101032.44;5009945;28;20060;-79
2021/05/08 03:53:21;;;;;;;11.75;8.18;;;;;;;1.76;62.68;101027.13;4990893;28;20051;-80
2021/05/08 03:55:51;;;;;;;11.60;7.85;;;;;;;1.76;62.60;101038.34;5031967;28;20081;-81
2021/05/08 03:58:25;;;;;;;11.35;8.10;;;;;;;1.76;62.54;101040.03;4997589;28;20376;-80
2021/05/08 04:00:51;;;;;;;11.23;7.55;;;;;;;1.73;62.46;101038.25;5028753;28;20467;-81
2021/05/08 04:03:16;;;;;;;11.73;7.88;;;;;;;1.72;62.36;101041.63;5001111;28;20047;-81
2021/05/08 04:05:42;;;;;;;10.05;7.45;;;;;;;1.70;62.44;101023.53;5035801;28;20040;-81
2021/05/08 04:08:08;;;;;;;11.40;7.43;;;;;;;1.68;62.32;101035.47;4987955;28;20052;-81
2021/05/08 04:10:34;;;;;;;12.20;8.32;;;;;;;1.67;62.42;101031.13;4984987;28;20076;-81
2021/05/08 04:12:59;;;;;;;12.48;8.30;;;;;;;1.67;62.59;101030.25;5028185;28;20052;-81
2021/05/08 04:15:25;;;;;;;11.77;8.13;;;;;;;1.65;62.63;101026.75;4983820;28;20068;-81
2021/05/08 04:17:51;;;;;;;10.90;7.97;;;;;;;1.65;62.84;101030.19;5030604;28;20989;-81
2021/05/08 04:20:17;;;;;;;12.13;8.25;;;;;;;1.63;62.42;101031.81;4996809;28;20046;-81
2021/05/08 04:22:42;;;;;;;10.65;7.82;;;;;;;1.61;62.66;101033.47;4994570;28;20057;-81
2021/05/08 04:25:08;;;;;;;10.82;8.30;;;;;;;1.62;62.44;101030.09;5002387;28;20046;-81
2021/05/08 04:27:34;;;;;;;11.60;7.95;;;;;;;1.66;64.04;101037.13;4998995;28;20840;-81
2021/05/08 04:30:00;;;;;;;11.00;8.30;;;;;;;1.73;64.01;101025.34;5001752;28;20037;-81
2021/05/08 04:32:25;;;;;;;12.85;8.48;;;;;;;1.78;63.86;101031.53;5018496;28;20034;-81
2021/05/08 04:34:51;;;;;;;11.90;7.82;;;;;;;1.81;64.08;101028.19;4985286;28;20157;-81
2021/05/08 04:37:17;;;;;;;11.63;8.05;;;;;;;1.81;64.07;101023.03;4995955;28;20059;-81
2021/05/08 04:39:43;;;;;;;12.13;8.18;;;;;;;1.85;64.05;101030.94;5030908;28;20822;-81
2021/05/08 04:42:09;;;;;;;13.98;8.38;;;;;;;1.87;63.46;101031.88;4999722;28;20137;-81
2021/05/08 04:44:35;;;;;;;10.80;7.68;;;;;;;1.85;64.12;101023.19;5012436;28;20129;-81
2021/05/08 04:47:01;;;;;;;11.27;8.05;;;;;;;1.87;64.09;101029.28;5013687;28;20092;-81
2021/05/08 04:49:26;;;;;;;10.52;7.43;;;;;;;1.88;63.02;101030.16;5000697;28;20041;-81
2021/05/08 04:51:54;;;;;;;10.50;7.63;;;;;;;1.85;62.66;101032.63;5001759;28;20039;-81
2021/05/08 04:54:20;;;;;;;10.63;7.25;;;;;;;1.81;63.02;101030.75;5002034;28;20052;-81
2021/05/08 04:56:46;;;;;;;9.82;7.28;;;;;;;1.75;62.74;101041.72;4983906;28;20049;-81
2021/05/08 04:59:12;;;;;;;11.32;7.60;;;;;;;1.73;62.47;101045.06;5014812;28;20080;-80
2021/05/08 05:01:37;;;;;;;10.48;6.80;;;;;;;1.72;62.67;101043.31;5002471;28;20067;-80
2021/05/08 05:04:03;;;;;;;11.13;7.35;;;;;;;1.72;62.28;101045.88;5009093;28;20192;-81
2021/05/08 05:06:29;;;;;;;10.95;6.82;;;;;;;1.70;62.14;101045.81;5016716;28;20040;-80
2021/05/08 05:08:55;;;;;;;9.93;6.75;;;;;;;1.72;61.98;101040.72;5001184;28;20115;-81
2021/05/08 05:11:22;;;;;;;9.15;7.13;;;;;;;1.72;62.19;101038.16;5030833;28;20042;-80
2021/05/08 05:13:48;;;;;;;10.35;7.07;;;;;;;1.75;61.96;101041.72;4999691;28;20048;-80
2021/05/08 05:16:15;;;;;;;9.48;6.53;;;;;;;1.79;61.78;101045.31;5010589;28;20040;-81
2021/05/08 05:18:40;;;;;;;9.55;6.85;;;;;;;1.78;61.76;101041.84;5017283;28;20044;-81
2021/05/08 05:21:06;;;;;;;10.35;7.43;;;;;;;1.81;62.16;101048.81;5033613;28;20041;-81
2021/05/08 05:23:32;;;;;;;8.77;6.55;;;;;;;1.82;61.94;101035.97;5031914;28;20044;-81
2021/05/08 05:25:58;;;;;;;9.57;6.93;;;;;;;1.85;62.09;101036.09;4999231;28;20037;-80
2021/05/08 05:28:26;;;;;;;9.80;7.15;;;;;;;1.90;62.39;101036.28;5025505;28;20203;-80
2021/05/08 05:30:53;;;;;;;10.80;6.82;;;;;;;1.92;62.69;101029.44;5060108;28;20025;-79
2021/05/08 05:33:19;;;;;;;11.20;7.57;;;;;;;1.95;62.45;101033.84;5001165;28;20037;-79
2021/05/08 05:35:54;;;;;;;9.93;7.03;;;;;;;1.98;62.89;101037.44;4982304;28;20048;-78
2021/05/08 05:38:21;;;;;;;8.85;6.63;;;;;;;2.00;62.88;101038.34;5010696;28;20061;-79
2021/05/08 05:40:46;;;;;;;10.23;6.80;;;;;;;2.04;62.96;101040.22;4998200;28;20047;-79
2021/05/08 05:43:15;;;;;;;9.32;6.78;;;;;;;2.09;62.40;101042.06;5013647;28;20124;-79
2021/05/08 05:45:41;;;;;;;9.90;6.13;;;;;;;2.15;61.91;101040.59;5032838;28;20037;-80
2021/05/08 05:48:07;;;;;;;9.43;6.00;;;;;;;2.22;61.75;101039.13;5003718;28;20536;-79
2021/05/08 05:50:42;;;;;;;9.68;7.38;;;;;;;2.29;61.82;101033.34;4993205;28;20076;-78
2021/05/08 05:53:08;;;;;;;8.23;5.90;;;;;;;2.34;61.51;101034.41;4991471;28;20041;-79
2021/05/08 05:55:34;;;;;;;9.45;6.00;;;;;;;2.42;61.61;101034.63;5006747;28;20037;-79
2021/05/08 05:58:01;;;;;;;8.45;5.97;;;;;;;2.47;61.82;101040.84;4967690;28;20041;-79
2021/05/08 06:00:27;;;;;;;8.77;6.28;;;;;;;2.53;61.73;101037.59;5044289;28;20033;-79
2021/05/08 06:02:52;;;;;;;9.15;5.70;;;;;;;2.57;62.13;101030.84;5026207;28;20091;-79
2021/05/08 06:05:18;;;;;;;9.57;6.32;;;;;;;2.61;61.79;101033.56;5016737;28;20192;-79
2021/05/08 06:07:44;;;;;;;8.93;6.25;;;;;;;2.65;61.73;101037.16;5024665;28;20052;-80
2021/05/08 06:10:11;;;;;;;9.77;6.32;;;;;;;2.69;62.20;101041.59;4993221;28;20045;-79
2021/05/08 06:12:38;;;;;;;7.90;5.55;;;;;;;2.75;62.01;101030.59;5012291;28;20425;-79
2021/05/08 06:15:08;;;;;;;8.90;5.40;;;;;;;2.81;61.88;101036.81;5007388;28;20057;-79
2021/05/08 06:17:34;;;;;;;8.20;5.40;;;;;;;2.89;62.63;101029.31;5001387;28;20470;-79
2021/05/08 06:20:00;;;;;;;8.48;5.75;;;;;;;2.95;62.29;101028.63;5013239;28;20128;-79
2021/05/08 06:22:27;;;;;;;8.32;5.05;;;;;;;3.00;62.41;101040.88;4990558;28;20060;-79
2021/05/08 06:24:53;;;;;;;7.78;5.25;;;;;;;3.08;62.09;101030.78;5042315;28;20070;-79
2021/05/08 06:27:18;;;;;;;8.27;5.03;;;;;;;3.18;62.63;101037.13;4998173;28;20481;-79
2021/05/08 06:29:44;;;;;;;9.70;5.40;;;;;;;3.26;62.35;101043.41;5016811;28;20045;-79
2021/05/08 06:32:10;;;;;;;7.45;5.45;;;;;;;3.33;62.58;101031.56;5008911;28;20041;-80
2021/05/08 06:34:35;;;;;;;7.13;4.85;;;;;;;3.44;62.40;101031.88;5008180;28;20037;-79
2021/05/08 06:37:02;;;;;;;7.05;4.93;;;;;;;3.53;62.47;101042.47;5045482;28;20126;-80
2021/05/08 06:39:29;;;;;;;7.82;4.93;;;;;;;3.62;62.24;101044.50;5014290;28;20029;-81
2021/05/08 06:41:55;;;;;;;6.70;4.75;;;;;;;3.70;62.02;101038.69;4993483;28;20068;-79
2021/05/08 06:44:24;;;;;;;7.22;4.93;;;;;;;3.81;61.96;101043.28;4995541;28;20116;-80
2021/05/08 06:46:51;;;;;;;7.32;4.93;;;;;;;3.91;62.29;101032.41;5005235;28;20029;-80
2021/05/08 06:49:17;;;;;;;8.25;5.70;;;;;;;4.00;62.29;101030.09;4999102;28;20042;-80
2021/05/08 06:51:42;;;;;;;7.68;4.78;;;;;;;4.11;62.33;101019.13;5024257;28;21013;-80
2021/05/08 06:54:08;;;;;;;6.85;4.70;;;;;;;4.21;62.16;101023.72;5026442;28;20041;-80
2021/05/08 06:56:34;;;;;;;8.40;5.65;;;;;;;4.32;62.14;101018.84;4992418;28;20038;-80
2021/05/08 06:59:00;;;;;;;8.75;4.97;;;;;;;4.44;62.01;101019.16;5000231;28;20048;-79
2021/05/08 07:01:25;;;;;;;7.60;4.85;;;;;;;4.55;61.73;101029.78;4993290;28;20045;-79
2021/05/08 07:03:51;;;;;;;7.68;4.85;;;;;;;4.67;61.90;101024.06;4973083;28;20094;-80
2021/05/08 07:06:16;;;;;;;9.02;5.00;;;;;;;4.77;61.64;101016.53;4990279;28;20481;-80
2021/05/08 07:08:42;;;;;;;7.65;4.50;;;;;;;4.89;61.52;101009.94;4994847;28;20396;-80
2021/05/08 07:11:08;;;;;;;7.47;4.60;;;;;;;5.00;61.47;101008.47;4991714;28;20049;-80
2021/05/08 07:13:34;;;;;;;7.15;4.68;;;;;;;5.14;61.38;101018.25;5013139;28;20036;-80
2021/05/08 07:15:59;;;;;;;6.80;4.60;;;;;;;5.25;61.56;101009.03;5009793;28;20036;-79
2021/05/08 07:18:26;;;;;;;7.57;4.30;;;;;;;5.37;60.88;101011.91;4994159;28;20097;-80
2021/05/08 07:20:52;;;;;;;7.60;4.45;;;;;;;5.48;60.87;101004.34;4990559;28;20054;-80
2021/05/08 07:23:19;;;;;;;7.05;4.03;;;;;;;5.59;60.97;101008.06;5023863;28;20047;-80
2021/05/08 07:25:45;;;;;;;6.43;4.30;;;;;;;5.70;60.40;101010.84;4996783;28;20174;-80
2021/05/08 07:28:14;;;;;;;6.88;4.40;;;;;;;5.82;60.49;101001.59;5024633;28;20123;-80
2021/05/08 07:30:42;;;;;;;6.70;4.68;;;;;;;5.92;60.26;100991.41;4993657;28;20189;-79
2021/05/08 07:33:10;;;;;;;6.95;4.10;;;;;;;6.03;59.80;100989.03;5041441;28;20037;-80
2021/05/08 07:35:36;;;;;;;6.47;3.97;;;;;;;6.13;59.36;100983.19;5041015;28;20083;-79
2021/05/08 07:38:01;;;;;;;6.47;3.72;;;;;;;6.25;59.81;100992.06;4994964;28;20081;-79
2021/05/08 07:40:27;;;;;;;7.13;4.05;;;;;;;6.37;59.14;100988.78;5009283;28;20079;-79
2021/05/08 07:42:53;;;;;;;7.63;4.50;;;;;;;6.46;59.06;100986.38;4998014;28;20056;-80
2021/05/08 07:45:19;;;;;;;6.18;4.07;;;;;;;6.57;58.99;100983.94;5006481;28;20047;-79
2021/05/08 07:47:45;;;;;;;5.85;3.42;;;;;;;6.64;58.25;100981.47;5009742;28;20071;-80
2021/05/08 07:50:11;;;;;;;7.25;3.80;;;;;;;6.76;58.16;100982.53;5009511;28;20080;-79
2021/05/08 07:52:37;;;;;;;6.28;3.65;;;;;;;6.86;57.45;100975.75;5040920;28;20041;-80
2021/05/08 07:55:04;;;;;;;7.32;3.33;;;;;;;6.93;57.59;100970.66;5011073;28;20040;-79
2021/05/08 07:57:30;;;;;;;5.97;3.60;;;;;;;7.03;57.96;100966.47;5011113;28;20033;-80
2021/05/08 07:59:56;;;;;;;7.07;3.88;;;;;;;7.12;57.94;100970.94;4996706;28;20080;-81
2021/05/08 08:02:21;;;;;;;4.78;3.17;;;;;;;7.20;57.82;100961.53;4996664;28;20042;-81
2021/05/08 08:04:47;;;;;;;5.13;3.53;;;;;;;7.28;57.40;100964.22;5002528;28;20128;-80
2021/05/08 08:07:13;;;;;;;6.30;3.63;;;;;;;7.40;56.91;100960.94;4977423;28;20109;-81
2021/05/08 08:09:41;;;;;;;6.60;3.95;;;;;;;7.50;56.94;100952.38;4980720;28;20041;-81
2021/05/08 08:12:07;;;;;;;5.82;3.42;;;;;;;7.62;57.16;100956.88;5003293;28;20049;-81
2021/05/08 08:14:33;;;;;;;6.82;3.58;;;;;;;7.71;56.78;100956.94;4995229;28;20038;-81
2021/05/08 08:16:58;;;;;;;5.43;2.92;;;;;;;7.81;57.05;100952.75;5021551;28;20057;-81
2021/05/08 08:19:24;;;;;;;5.72;3.22;;;;;;;7.91;56.83;100948.53;5011073;28;20538;-81
2021/05/08 08:21:49;;;;;;;6.35;3.15;;;;;;;8.01;56.70;100950.34;5005723;28;20037;-81
2021/05/08 08:24:15;;;;;;;5.75;2.83;;;;;;;8.12;56.34;100948.72;5007702;28;20103;-81
2021/05/08 08:26:41;;;;;;;6.35;2.78;;;;;;;8.25;55.75;100948.84;4962392;28;20068;-81
2021/05/08 08:29:07;;;;;;;6.45;3.22;;;;;;;8.37;56.15;100948.94;4996614;28;20551;-82
2021/05/08 08:31:33;;;;;;;5.63;3.20;;;;;;;8.47;56.36;100949.94;5010254;28;20041;-81
2021/05/08 08:33:59;;;;;;;6.78;3.33;;;;;;;8.57;56.33;100946.56;4997044;28;20051;-81
2021/05/08 08:36:25;;;;;;;7.43;3.25;;;;;;;8.69;55.97;100945.78;5010420;28;20040;-81
2021/05/08 08:38:51;;;;;;;6.32;2.78;;;;;;;8.82;55.06;100942.41;4966201;28;20049;-80
2021/05/08 08:41:17;;;;;;;5.53;2.92;;;;;;;8.94;54.64;100948.56;5007004;28;20071;-81
2021/05/08 08:43:45;;;;;;;5.80;2.95;;;;;;;9.09;53.47;100947.78;5006372;28;20050;-80
2021/05/08 08:46:12;;;;;;;;;;;;;;;9.20;53.81;100939.13;4984767;28;20111;-81
2021/05/08 08:48:41;;;;;;;4.25;2.53;;;;;;;9.31;53.53;100936.59;5012560;28;20569;-81
2021/05/08 08:51:07;;;;;;;6.05;3.30;;;;;;;9.42;53.31;100923.59;4995783;28;20046;-81
2021/05/08 08:53:34;;;;;;;5.18;2.85;;;;;;;9.50;53.50;100921.88;5007285;28;20095;-80
2021/05/08 08:56:00;;;;;;;5.43;2.95;;;;;;;9.62;53.68;100914.97;5004549;28;20128;-81
2021/05/08 08:58:32;;;;;;;5.18;2.70;;;;;;;9.72;53.35;100921.97;4996542;28;20119;-81
2021/05/08 09:01:00;;;;;;;5.15;2.30;;;;;;;9.82;53.65;100909.81;5008875;28;20035;-80
2021/05/08 09:03:26;;;;;;;4.45;2.60;;;;;;;9.95;52.55;100913.31;4977234;28;20091;-79
2021/05/08 09:05:55;;;;;;;7.22;2.88;;;;;;;10.04;52.67;100901.13;5001095;28;20060;-79
2021/05/08 09:08:21;;;;;;;5.50;2.53;;;;;;;10.13;52.15;100900.25;4997389;28;20187;-79
2021/05/08 09:10:49;;;;;;;4.90;2.47;;;;;;;10.23;52.31;100904.66;4998577;28;20048;-78
2021/05/08 09:13:23;;;;;;;5.70;2.58;;;;;;;10.35;51.36;100906.41;5027597;28;20383;-80
2021/05/08 09:15:52;;;;;;;4.90;2.70;;;;;;;10.41;52.46;100887.25;5016776;28;20072;-79
2021/05/08 09:18:31;;;;;;;;;;;;;;;10.49;50.69;100880.25;5013862;28;20124;-79
2021/05/08 09:20:56;;;;;;;;;;;;;;;10.60;51.39;100882.00;4997012;28;19924;-79
2021/05/08 09:23:24;;;;;;;7.18;2.65;;;;;;;10.65;51.48;100878.50;5025380;28;20027;-80
2021/05/08 09:26:03;;;;;;;4.57;2.60;;;;;;;10.73;51.82;100878.50;4977152;28;20049;-80
2021/05/08 09:28:30;;;;;;;6.25;2.70;;;;;;;10.81;51.66;100874.09;5028861;28;20589;-80
2021/05/08 09:30:57;;;;;;;5.03;2.65;;;;;;;10.90;50.68;100881.94;4996359;28;20048;-80
2021/05/08 09:33:25;;;;;;;6.53;2.92;;;;;;;11.01;51.18;100858.38;4999587;28;20056;-78
2021/05/08 09:36:09;;;;;;;5.25;2.67;;;;;;;11.14;49.97;100858.31;4993478;28;20069;-80
2021/05/08 09:38:36;;;;;;;5.22;2.50;;;;;;;11.24;50.12;100855.66;5008665;28;20221;-80
2021/05/08 09:41:03;;;;;;;5.47;2.65;;;;;;;11.36;50.22;100844.25;5009534;28;20075;-80
2021/05/08 09:43:29;;;;;;;4.63;2.50;;;;;;;11.46;50.80;100845.06;5032436;28;20046;-78
2021/05/08 09:45:57;;;;;;;6.47;2.78;;;;;;;11.59;48.24;100844.13;5022753;28;20123;-79
2021/05/08 09:48:27;;;;;;;4.80;2.95;;;;;;;11.72;49.29;100836.19;5040543;28;20110;-79
2021/05/08 09:51:12;;;;;;;4.78;2.55;;;;;;;11.81;49.98;100833.53;5019532;28;20049;-79
2021/05/08 09:53:38;;;;;;;5.13;2.80;;;;;;;11.91;49.70;100840.44;5016024;28;20068;-80
2021/05/08 09:56:04;;;;;;;4.70;2.50;;;;;;;12.03;48.99;100836.88;5032756;28;20032;-80
2021/05/08 09:58:29;;;;;;;5.15;2.67;;;;;;;12.14;47.87;100828.91;5030765;28;20045;-80
2021/05/08 10:00:55;;;;;;;4.13;2.38;;;;;;;12.24;48.42;100825.34;5024036;28;20048;-80
2021/05/08 10:03:21;;;;;;;7.15;2.45;;;;;;;12.37;47.11;100828.72;5019920;28;20069;-80
2021/05/08 10:07:47;;;;;;;5.40;2.50;;;;;;;12.53;46.67;100820.69;5073472;27;20132;-48
2021/05/08 10:10:12;;;;;;;4.93;2.75;;;;;;;12.60;46.64;100810.13;5088209;28;20448;-48
2021/05/08 10:12:38;;;;;;;5.15;2.50;;;;;;;12.70;46.73;100802.16;5094890;28;20089;-47
2021/05/08 10:15:04;;;;;;;7.93;2.50;;;;;;;12.75;47.85;100806.47;5069312;28;20277;-48
2021/05/08 10:17:30;;;;;;;5.45;2.40;;;;;;;12.85;46.05;100807.22;5088852;28;20048;-47
2021/05/08 10:20:06;;;;;;;4.40;2.65;;;;;;;12.93;44.41;100792.28;5093378;28;20358;-47
2021/05/08 10:22:34;;;;;;;4.88;2.50;;;;;;;13.01;45.04;100791.28;5084307;28;20056;-48
2021/05/08 10:25:04;;;;;;;4.68;2.60;;;;;;;13.07;45.62;100792.09;5074034;28;20032;-48
2021/05/08 10:27:29;;;;;;;5.80;2.88;;;;;;;13.15;45.86;100789.34;5077478;28;20123;-49
2021/05/08 10:29:56;;;;;;;4.78;2.22;;;;;;;13.25;45.22;100785.72;5094533;28;20190;-48
2021/05/08 10:32:22;;;;;;;4.80;2.30;;;;;;;13.34;46.75;100776.84;5092597;28;20036;-47
2021/05/08 10:34:54;;;;;;;13.88;2.72;;;;;;;13.58;39.38;100783.53;5096916;28;20040;-49
2021/05/08 10:37:21;;;;;;;13.35;3.92;;;;;;;13.92;41.85;100776.88;5095772;28;20492;-48
2021/05/08 10:39:57;;;;;;;8.60;2.67;;;;;;;14.01;38.41;100778.47;5094829;28;20043;-47
2021/05/08 10:42:33;;;;;;;7.70;3.20;;;;;;;14.10;36.91;100768.66;5094749;28;20044;-47
2021/05/08 10:45:19;;;;;;;8.98;2.78;;;;;;;14.16;39.87;100765.03;5065393;28;20048;-46
2021/05/08 10:47:54;;;;;;;6.93;2.70;;;;;;;14.21;40.94;100764.97;5069857;28;20535;-44
2021/05/08 10:50:29;;;;;;;6.75;2.90;;;;;;;14.28;41.31;100763.97;5081533;28;20055;-46
2021/05/08 10:53:06;;;;;;;6.90;2.42;;;;;;;14.36;42.12;100763.81;5072868;28;20097;-48
2021/05/08 10:55:43;;;;;;;6.97;3.00;;;;;;;14.58;39.31;100752.00;5063645;28;20126;-49
2021/05/08 10:58:15;;;;;;;4.32;2.17;;;;;;;14.65;36.03;100760.66;5081385;28;20100;-50
2021/05/08 11:00:48;;;;;;;4.85;2.05;;;;;;;14.62;35.70;100758.97;5060318;28;20039;-48
2021/05/08 11:03:18;;;;;;;4.38;2.50;;;;;;;14.62;35.98;100743.16;5080363;28;20371;-51
2021/05/08 11:05:54;;;;;;;4.28;2.35;;;;;;;14.68;35.20;100749.22;5064533;28;20131;-47
2021/05/08 11:08:26;;;;;;;4.43;2.15;;;;;;;14.69;35.22;100740.41;5037878;28;20086;-49
2021/05/08 11:11:03;;;;;;;4.05;2.17;;;;;;;14.80;36.04;100728.78;5067174;28;20119;-53
2021/05/08 11:13:41;;;;;;;5.43;2.00;;;;;;;14.88;36.26;100733.84;5078032;28;20044;-46
2021/05/08 11:16:14;;;;;;;4.63;2.42;;;;;;;14.95;36.18;100738.09;5056368;28;20051;-46
2021/05/08 11:18:42;;;;;;;5.55;2.28;;;;;;;14.93;36.26;100729.34;5071360;28;20667;-46
2021/05/08 11:21:08;;;;;;;8.88;2.38;;;;;;;15.03;36.69;100722.13;5049520;28;20036;-46
2021/05/08 11:23:44;;;;;;;5.50;2.08;;;;;;;15.19;34.84;100717.38;5051498;28;20914;-49
2021/05/08 11:26:26;;;;;;;4.85;2.42;;;;;;;15.15;35.16;100721.00;5055268;28;20503;-47
2021/05/08 11:29:03;;;;;;;5.15;2.35;;;;;;;15.16;34.92;100712.19;5045343;28;20504;-45
2021/05/08 11:31:51;;;;;;;5.13;2.50;;;;;;;15.24;34.80;100718.13;5067939;28;20048;-47
2021/05/08 11:34:17;;;;;;;4.20;2.50;;;;;;;15.20;34.83;100708.56;5062669;28;20067;-45